sensor_id;sensor_type;location;lat;lon;timestamp;P1;durP1;ratioP1;P2;durP2;ratioP2
46765;SDS011;32527;51.986;5.842;2023-03-01T00:01:48;10.90;;;5.90;;
46765;SDS011;32527;51.986;5.842;2023-03-01T00:04:14;9.68;;;5.40;;
46765;SDS011;32527;51.986;5.842;2023-03-01T00:06:41;9.93;;;6.35;;
46765;SDS011;32527;51.986;5.842;2023-03-01T00:09:11;11.15;;;6.30;;
46765;SDS011;32527;51.986;5.842;2023-03-01T00:11:38;8.93;;;5.40;;
46765;SDS011;32527;51.986;5.842;2023-03-01T00:14:04;9.25;;;5.68;;
46765;SDS011;32527;51.986;5.842;2023-03-01T00:16:31;8.43;;;5.75;;
46765;SDS011;32527;51.986;5.842;2023-03-01T00:18:58;9.30;;;5.93;;
46765;SDS011;32527;51.986;5.842;2023-03-01T00:21:25;10.82;;;5.95;;
46765;SDS011;32527;51.986;5.842;2023-03-01T00:23:51;10.98;;;5.65;;
46765;SDS011;32527;51.986;5.842;2023-03-01T00:26:18;12.07;;;6.07;;
46765;SDS011;32527;51.986;5.842;2023-03-01T00:28:46;9.10;;;5.93;;
46765;SDS011;32527;51.986;5.842;2023-03-01T00:31:13;9.48;;;5.50;;
46765;SDS011;32527;51.986;5.842;2023-03-01T00:33:40;12.43;;;6.25;;
46765;SDS011;32527;51.986;5.842;2023-03-01T00:36:06;11.27;;;6.60;;
46765;SDS011;32527;51.986;5.842;2023-03-01T00:38:37;8.27;;;5.90;;
46765;SDS011;32527;51.986;5.842;2023-03-01T00:41:08;8.25;;;5.00;;
46765;SDS011;32527;51.986;5.842;2023-03-01T00:43:36;13.70;;;5.95;;
46765;SDS011;32527;51.986;5.842;2023-03-01T00:46:07;13.25;;;5.70;;
46765;SDS011;32527;51.986;5.842;2023-03-01T00:48:35;11.35;;;5.63;;
46765;SDS011;32527;51.986;5.842;2023-03-01T00:51:05;10.48;;;5.97;;
46765;SDS011;32527;51.986;5.842;2023-03-01T00:53:32;10.27;;;5.63;;
46765;SDS011;32527;51.986;5.842;2023-03-01T00:55:58;10.77;;;5.85;;
46765;SDS011;32527;51.986;5.842;2023-03-01T00:58:24;8.73;;;5.05;;
46765;SDS011;32527;51.986;5.842;2023-03-01T01:00:51;11.60;;;6.63;;
46765;SDS011;32527;51.986;5.842;2023-03-01T01:03:18;9.45;;;5.50;;
46765;SDS011;32527;51.986;5.842;2023-03-01T01:05:44;9.15;;;5.38;;
46765;SDS011;32527;51.986;5.842;2023-03-01T01:08:10;10.02;;;5.50;;
46765;SDS011;32527;51.986;5.842;2023-03-01T01:10:36;8.73;;;5.22;;
46765;SDS011;32527;51.986;5.842;2023-03-01T01:13:02;8.73;;;4.82;;
46765;SDS011;32527;51.986;5.842;2023-03-01T01:15:28;8.07;;;4.85;;
46765;SDS011;32527;51.986;5.842;2023-03-01T01:17:54;7.05;;;4.53;;
46765;SDS011;32527;51.986;5.842;2023-03-01T01:20:20;9.65;;;5.60;;
46765;SDS011;32527;51.986;5.842;2023-03-01T01:22:46;7.55;;;4.93;;
46765;SDS011;32527;51.986;5.842;2023-03-01T01:25:12;6.88;;;4.63;;
46765;SDS011;32527;51.986;5.842;2023-03-01T01:27:38;10.93;;;5.90;;
46765;SDS011;32527;51.986;5.842;2023-03-01T01:30:05;11.88;;;5.85;;
46765;SDS011;32527;51.986;5.842;2023-03-01T01:32:31;9.20;;;5.75;;
46765;SDS011;32527;51.986;5.842;2023-03-01T01:34:57;8.27;;;5.13;;
46765;SDS011;32527;51.986;5.842;2023-03-01T01:37:23;11.77;;;5.57;;
46765;SDS011;32527;51.986;5.842;2023-03-01T01:39:57;8.23;;;5.47;;
46765;SDS011;32527;51.986;5.842;2023-03-01T01:42:24;11.02;;;5.10;;
46765;SDS011;32527;51.986;5.842;2023-03-01T01:45:15;10.45;;;6.30;;
46765;SDS011;32527;51.986;5.842;2023-03-01T01:47:55;9.50;;;5.30;;
46765;SDS011;32527;51.986;5.842;2023-03-01T01:50:23;13.20;;;6.03;;
46765;SDS011;32527;51.986;5.842;2023-03-01T01:52:50;9.90;;;6.35;;
46765;SDS011;32527;51.986;5.842;2023-03-01T01:55:19;12.10;;;6.25;;
46765;SDS011;32527;51.986;5.842;2023-03-01T01:57:55;11.40;;;5.97;;
46765;SDS011;32527;51.986;5.842;2023-03-01T02:00:25;13.13;;;6.40;;
46765;SDS011;32527;51.986;5.842;2023-03-01T02:02:59;10.57;;;6.22;;
46765;SDS011;32527;51.986;5.842;2023-03-01T02:05:51;10.80;;;6.53;;
46765;SDS011;32527;51.986;5.842;2023-03-01T02:08:19;8.25;;;5.47;;
46765;SDS011;32527;51.986;5.842;2023-03-01T02:10:45;12.38;;;6.30;;
46765;SDS011;32527;51.986;5.842;2023-03-01T02:13:13;11.90;;;5.82;;
46765;SDS011;32527;51.986;5.842;2023-03-01T02:15:39;10.23;;;6.07;;
46765;SDS011;32527;51.986;5.842;2023-03-01T02:18:06;7.70;;;5.03;;
46765;SDS011;32527;51.986;5.842;2023-03-01T02:20:43;8.38;;;5.45;;
46765;SDS011;32527;51.986;5.842;2023-03-01T02:23:26;10.50;;;6.15;;
46765;SDS011;32527;51.986;5.842;2023-03-01T02:28:34;11.70;;;6.03;;
46765;SDS011;32527;51.986;5.842;2023-03-01T02:31:03;12.00;;;5.97;;
46765;SDS011;32527;51.986;5.842;2023-03-01T02:33:49;10.85;;;6.10;;
46765;SDS011;32527;51.986;5.842;2023-03-01T02:36:29;9.57;;;5.25;;
46765;SDS011;32527;51.986;5.842;2023-03-01T02:39:01;11.97;;;5.57;;
46765;SDS011;32527;51.986;5.842;2023-03-01T02:41:30;10.60;;;5.88;;
46765;SDS011;32527;51.986;5.842;2023-03-01T02:44:00;8.73;;;5.63;;
46765;SDS011;32527;51.986;5.842;2023-03-01T02:46:28;8.15;;;5.20;;
46765;SDS011;32527;51.986;5.842;2023-03-01T02:48:56;8.60;;;5.75;;
46765;SDS011;32527;51.986;5.842;2023-03-01T02:56:15;9.10;;;5.78;;
46765;SDS011;32527;51.986;5.842;2023-03-01T02:58:41;12.10;;;5.80;;
46765;SDS011;32527;51.986;5.842;2023-03-01T03:01:13;10.60;;;5.97;;
46765;SDS011;32527;51.986;5.842;2023-03-01T03:03:41;10.45;;;6.40;;
46765;SDS011;32527;51.986;5.842;2023-03-01T03:06:07;10.77;;;5.60;;
46765;SDS011;32527;51.986;5.842;2023-03-01T03:08:34;9.55;;;5.90;;
46765;SDS011;32527;51.986;5.842;2023-03-01T03:11:00;9.15;;;5.97;;
46765;SDS011;32527;51.986;5.842;2023-03-01T03:13:26;12.65;;;6.20;;
46765;SDS011;32527;51.986;5.842;2023-03-01T03:15:54;12.88;;;5.97;;
46765;SDS011;32527;51.986;5.842;2023-03-01T03:18:21;14.20;;;6.22;;
46765;SDS011;32527;51.986;5.842;2023-03-01T03:20:47;10.15;;;5.82;;
46765;SDS011;32527;51.986;5.842;2023-03-01T03:23:17;12.50;;;6.07;;
46765;SDS011;32527;51.986;5.842;2023-03-01T03:25:43;8.98;;;5.43;;
46765;SDS011;32527;51.986;5.842;2023-03-01T03:28:09;13.02;;;6.18;;
46765;SDS011;32527;51.986;5.842;2023-03-01T03:30:37;9.88;;;5.68;;
46765;SDS011;32527;51.986;5.842;2023-03-01T03:33:04;9.32;;;5.40;;
46765;SDS011;32527;51.986;5.842;2023-03-01T03:35:31;9.93;;;5.80;;
46765;SDS011;32527;51.986;5.842;2023-03-01T03:38:04;11.18;;;6.03;;
46765;SDS011;32527;51.986;5.842;2023-03-01T03:40:35;11.40;;;6.28;;
46765;SDS011;32527;51.986;5.842;2023-03-01T03:43:06;10.75;;;5.72;;
46765;SDS011;32527;51.986;5.842;2023-03-01T03:45:34;9.70;;;5.95;;
46765;SDS011;32527;51.986;5.842;2023-03-01T03:48:00;8.45;;;5.75;;
46765;SDS011;32527;51.986;5.842;2023-03-01T03:50:27;9.90;;;6.03;;
46765;SDS011;32527;51.986;5.842;2023-03-01T03:52:53;9.30;;;5.40;;
46765;SDS011;32527;51.986;5.842;2023-03-01T03:55:19;11.45;;;5.55;;
46765;SDS011;32527;51.986;5.842;2023-03-01T03:57:46;9.10;;;5.25;;
46765;SDS011;32527;51.986;5.842;2023-03-01T04:00:17;9.75;;;5.95;;
46765;SDS011;32527;51.986;5.842;2023-03-01T04:02:44;10.00;;;6.03;;
46765;SDS011;32527;51.986;5.842;2023-03-01T04:05:12;10.32;;;5.90;;
46765;SDS011;32527;51.986;5.842;2023-03-01T04:07:40;9.07;;;5.93;;
46765;SDS011;32527;51.986;5.842;2023-03-01T04:10:11;8.82;;;5.78;;
46765;SDS011;32527;51.986;5.842;2023-03-01T04:12:38;10.45;;;5.47;;
46765;SDS011;32527;51.986;5.842;2023-03-01T04:15:05;11.45;;;5.35;;
46765;SDS011;32527;51.986;5.842;2023-03-01T04:17:45;9.52;;;5.32;;
46765;SDS011;32527;51.986;5.842;2023-03-01T04:20:13;7.75;;;5.30;;
46765;SDS011;32527;51.986;5.842;2023-03-01T04:22:42;8.73;;;5.10;;
46765;SDS011;32527;51.986;5.842;2023-03-01T04:25:12;10.10;;;5.40;;
46765;SDS011;32527;51.986;5.842;2023-03-01T04:27:39;10.40;;;4.93;;
46765;SDS011;32527;51.986;5.842;2023-03-01T04:30:05;9.00;;;5.93;;
46765;SDS011;32527;51.986;5.842;2023-03-01T04:32:33;10.15;;;5.80;;
46765;SDS011;32527;51.986;5.842;2023-03-01T04:34:59;8.02;;;5.10;;
46765;SDS011;32527;51.986;5.842;2023-03-01T04:37:25;10.45;;;5.80;;
46765;SDS011;32527;51.986;5.842;2023-03-01T04:39:51;7.95;;;5.20;;
46765;SDS011;32527;51.986;5.842;2023-03-01T04:42:17;8.27;;;5.32;;
46765;SDS011;32527;51.986;5.842;2023-03-01T04:44:43;9.00;;;4.88;;
46765;SDS011;32527;51.986;5.842;2023-03-01T04:47:10;13.70;;;6.25;;
46765;SDS011;32527;51.986;5.842;2023-03-01T04:49:36;8.65;;;5.50;;
46765;SDS011;32527;51.986;5.842;2023-03-01T04:52:03;9.02;;;5.07;;
46765;SDS011;32527;51.986;5.842;2023-03-01T04:54:32;10.77;;;5.28;;
46765;SDS011;32527;51.986;5.842;2023-03-01T04:56:59;9.57;;;6.40;;
46765;SDS011;32527;51.986;5.842;2023-03-01T04:59:25;8.75;;;5.78;;
46765;SDS011;32527;51.986;5.842;2023-03-01T05:01:51;9.40;;;5.20;;
46765;SDS011;32527;51.986;5.842;2023-03-01T05:04:20;8.60;;;5.50;;
46765;SDS011;32527;51.986;5.842;2023-03-01T05:06:46;9.77;;;5.57;;
46765;SDS011;32527;51.986;5.842;2023-03-01T05:09:12;10.73;;;5.70;;
46765;SDS011;32527;51.986;5.842;2023-03-01T05:11:38;9.02;;;5.53;;
46765;SDS011;32527;51.986;5.842;2023-03-01T05:14:05;9.25;;;5.40;;
46765;SDS011;32527;51.986;5.842;2023-03-01T05:16:32;12.02;;;5.45;;
46765;SDS011;32527;51.986;5.842;2023-03-01T05:18:58;9.50;;;6.03;;
46765;SDS011;32527;51.986;5.842;2023-03-01T05:21:24;13.65;;;6.18;;
46765;SDS011;32527;51.986;5.842;2023-03-01T05:23:50;9.82;;;5.32;;
46765;SDS011;32527;51.986;5.842;2023-03-01T05:26:17;11.02;;;5.35;;
46765;SDS011;32527;51.986;5.842;2023-03-01T05:28:44;11.18;;;6.00;;
46765;SDS011;32527;51.986;5.842;2023-03-01T05:31:09;8.70;;;5.57;;
46765;SDS011;32527;51.986;5.842;2023-03-01T05:33:36;9.13;;;5.25;;
46765;SDS011;32527;51.986;5.842;2023-03-01T05:36:03;9.80;;;5.45;;
46765;SDS011;32527;51.986;5.842;2023-03-01T05:38:29;10.68;;;5.57;;
46765;SDS011;32527;51.986;5.842;2023-03-01T05:40:55;10.20;;;4.97;;
46765;SDS011;32527;51.986;5.842;2023-03-01T05:43:21;9.07;;;5.43;;
46765;SDS011;32527;51.986;5.842;2023-03-01T05:45:47;12.90;;;5.53;;
46765;SDS011;32527;51.986;5.842;2023-03-01T05:48:13;11.85;;;5.57;;
46765;SDS011;32527;51.986;5.842;2023-03-01T05:50:40;10.55;;;5.63;;
46765;SDS011;32527;51.986;5.842;2023-03-01T05:53:15;10.88;;;5.45;;
46765;SDS011;32527;51.986;5.842;2023-03-01T05:55:43;10.20;;;5.47;;
46765;SDS011;32527;51.986;5.842;2023-03-01T05:58:11;9.00;;;5.63;;
46765;SDS011;32527;51.986;5.842;2023-03-01T06:00:39;11.50;;;5.50;;
46765;SDS011;32527;51.986;5.842;2023-03-01T06:03:05;12.38;;;6.00;;
46765;SDS011;32527;51.986;5.842;2023-03-01T06:05:31;9.88;;;5.60;;
46765;SDS011;32527;51.986;5.842;2023-03-01T06:08:01;8.13;;;5.30;;
46765;SDS011;32527;51.986;5.842;2023-03-01T06:10:27;9.77;;;5.63;;
46765;SDS011;32527;51.986;5.842;2023-03-01T06:12:53;9.98;;;5.07;;
46765;SDS011;32527;51.986;5.842;2023-03-01T06:15:19;8.27;;;5.30;;
46765;SDS011;32527;51.986;5.842;2023-03-01T06:17:45;9.50;;;5.93;;
46765;SDS011;32527;51.986;5.842;2023-03-01T06:20:16;10.18;;;5.93;;
46765;SDS011;32527;51.986;5.842;2023-03-01T06:22:46;10.43;;;6.15;;
46765;SDS011;32527;51.986;5.842;2023-03-01T06:25:13;11.60;;;5.57;;
46765;SDS011;32527;51.986;5.842;2023-03-01T06:27:41;10.48;;;5.45;;
46765;SDS011;32527;51.986;5.842;2023-03-01T06:30:07;17.48;;;5.97;;
46765;SDS011;32527;51.986;5.842;2023-03-01T06:32:35;10.98;;;5.72;;
46765;SDS011;32527;51.986;5.842;2023-03-01T06:35:02;13.65;;;5.97;;
46765;SDS011;32527;51.986;5.842;2023-03-01T06:37:29;11.43;;;5.90;;
46765;SDS011;32527;51.986;5.842;2023-03-01T06:39:55;14.93;;;6.47;;
46765;SDS011;32527;51.986;5.842;2023-03-01T06:42:21;12.43;;;5.97;;
46765;SDS011;32527;51.986;5.842;2023-03-01T06:44:47;8.65;;;5.85;;
46765;SDS011;32527;51.986;5.842;2023-03-01T06:47:13;10.00;;;4.93;;
46765;SDS011;32527;51.986;5.842;2023-03-01T06:49:39;15.48;;;6.68;;
46765;SDS011;32527;51.986;5.842;2023-03-01T06:52:05;13.15;;;5.78;;
46765;SDS011;32527;51.986;5.842;2023-03-01T06:54:31;10.27;;;5.72;;
46765;SDS011;32527;51.986;5.842;2023-03-01T06:56:57;10.07;;;5.88;;
46765;SDS011;32527;51.986;5.842;2023-03-01T06:59:23;10.10;;;5.93;;
46765;SDS011;32527;51.986;5.842;2023-03-01T07:01:49;11.93;;;6.20;;
46765;SDS011;32527;51.986;5.842;2023-03-01T07:04:15;13.23;;;6.32;;
46765;SDS011;32527;51.986;5.842;2023-03-01T07:06:41;15.18;;;6.50;;
46765;SDS011;32527;51.986;5.842;2023-03-01T07:09:07;10.02;;;6.18;;
46765;SDS011;32527;51.986;5.842;2023-03-01T07:11:33;12.15;;;5.90;;
46765;SDS011;32527;51.986;5.842;2023-03-01T07:13:59;15.70;;;6.97;;
46765;SDS011;32527;51.986;5.842;2023-03-01T07:16:25;10.70;;;6.35;;
46765;SDS011;32527;51.986;5.842;2023-03-01T07:18:51;10.10;;;7.25;;
46765;SDS011;32527;51.986;5.842;2023-03-01T07:21:17;9.25;;;6.25;;
46765;SDS011;32527;51.986;5.842;2023-03-01T07:23:43;8.98;;;5.85;;
46765;SDS011;32527;51.986;5.842;2023-03-01T07:29:37;10.80;;;6.90;;
46765;SDS011;32527;51.986;5.842;2023-03-01T07:32:36;9.55;;;5.80;;
46765;SDS011;32527;51.986;5.842;2023-03-01T07:40:23;16.42;;;6.35;;
46765;SDS011;32527;51.986;5.842;2023-03-01T08:05:34;11.40;;;5.72;;
46765;SDS011;32527;51.986;5.842;2023-03-01T08:18:49;9.90;;;5.70;;
46765;SDS011;32527;51.986;5.842;2023-03-01T08:21:21;12.82;;;6.18;;
46765;SDS011;32527;51.986;5.842;2023-03-01T08:23:48;9.38;;;5.80;;
46765;SDS011;32527;51.986;5.842;2023-03-01T08:26:16;10.23;;;5.40;;
46765;SDS011;32527;51.986;5.842;2023-03-01T08:29:14;12.77;;;6.55;;
46765;SDS011;32527;51.986;5.842;2023-03-01T08:31:54;10.10;;;5.97;;
46765;SDS011;32527;51.986;5.842;2023-03-01T08:35:37;10.48;;;5.57;;
46765;SDS011;32527;51.986;5.842;2023-03-01T08:38:03;8.30;;;5.63;;
46765;SDS011;32527;51.986;5.842;2023-03-01T08:40:28;11.80;;;6.10;;
46765;SDS011;32527;51.986;5.842;2023-03-01T08:42:56;11.95;;;5.28;;
46765;SDS011;32527;51.986;5.842;2023-03-01T08:45:23;10.07;;;5.93;;
46765;SDS011;32527;51.986;5.842;2023-03-01T08:47:51;10.63;;;5.68;;
46765;SDS011;32527;51.986;5.842;2023-03-01T08:50:18;8.20;;;4.75;;
46765;SDS011;32527;51.986;5.842;2023-03-01T08:52:44;11.45;;;6.03;;
46765;SDS011;32527;51.986;5.842;2023-03-01T08:55:10;8.77;;;5.55;;
46765;SDS011;32527;51.986;5.842;2023-03-01T08:57:36;8.80;;;4.93;;
46765;SDS011;32527;51.986;5.842;2023-03-01T09:00:02;13.27;;;5.40;;
46765;SDS011;32527;51.986;5.842;2023-03-01T09:02:33;12.40;;;5.65;;
46765;SDS011;32527;51.986;5.842;2023-03-01T09:04:59;9.43;;;5.45;;
46765;SDS011;32527;51.986;5.842;2023-03-01T09:07:26;10.57;;;5.72;;
46765;SDS011;32527;51.986;5.842;2023-03-01T09:09:53;11.23;;;5.18;;
46765;SDS011;32527;51.986;5.842;2023-03-01T09:12:20;12.68;;;5.22;;
46765;SDS011;32527;51.986;5.842;2023-03-01T09:14:46;7.35;;;4.50;;
46765;SDS011;32527;51.986;5.842;2023-03-01T09:17:12;9.35;;;5.35;;
46765;SDS011;32527;51.986;5.842;2023-03-01T09:19:38;10.15;;;4.60;;
46765;SDS011;32527;51.986;5.842;2023-03-01T09:22:04;9.50;;;5.05;;
46765;SDS011;32527;51.986;5.842;2023-03-01T09:24:30;9.63;;;4.55;;
46765;SDS011;32527;51.986;5.842;2023-03-01T09:26:56;9.60;;;4.30;;
46765;SDS011;32527;51.986;5.842;2023-03-01T09:29:23;9.48;;;4.50;;
46765;SDS011;32527;51.986;5.842;2023-03-01T09:31:49;9.32;;;4.40;;
46765;SDS011;32527;51.986;5.842;2023-03-01T09:34:15;7.90;;;3.88;;
46765;SDS011;32527;51.986;5.842;2023-03-01T09:36:44;6.80;;;4.05;;
46765;SDS011;32527;51.986;5.842;2023-03-01T09:39:10;7.82;;;4.18;;
46765;SDS011;32527;51.986;5.842;2023-03-01T09:41:44;8.43;;;4.38;;
46765;SDS011;32527;51.986;5.842;2023-03-01T09:44:21;8.98;;;4.10;;
46765;SDS011;32527;51.986;5.842;2023-03-01T09:46:49;7.65;;;4.30;;
46765;SDS011;32527;51.986;5.842;2023-03-01T09:49:26;6.30;;;3.63;;
46765;SDS011;32527;51.986;5.842;2023-03-01T09:54:21;8.43;;;5.28;;
46765;SDS011;32527;51.986;5.842;2023-03-01T09:56:57;10.43;;;6.45;;
46765;SDS011;32527;51.986;5.842;2023-03-01T09:59:32;9.85;;;5.47;;
46765;SDS011;32527;51.986;5.842;2023-03-01T10:05:14;9.48;;;5.75;;
46765;SDS011;32527;51.986;5.842;2023-03-01T10:07:50;13.38;;;6.28;;
46765;SDS011;32527;51.986;5.842;2023-03-01T10:10:31;16.50;;;7.03;;
46765;SDS011;32527;51.986;5.842;2023-03-01T10:13:00;10.23;;;7.00;;
46765;SDS011;32527;51.986;5.842;2023-03-01T10:15:40;10.98;;;6.55;;
46765;SDS011;32527;51.986;5.842;2023-03-01T10:18:10;15.27;;;8.32;;
46765;SDS011;32527;51.986;5.842;2023-03-01T10:23:26;12.85;;;6.47;;
46765;SDS011;32527;51.986;5.842;2023-03-01T10:28:25;10.10;;;6.40;;
46765;SDS011;32527;51.986;5.842;2023-03-01T10:30:54;10.27;;;6.00;;
46765;SDS011;32527;51.986;5.842;2023-03-01T10:33:21;12.57;;;6.97;;
46765;SDS011;32527;51.986;5.842;2023-03-01T10:35:52;12.15;;;5.38;;
46765;SDS011;32527;51.986;5.842;2023-03-01T10:38:19;9.40;;;5.45;;
46765;SDS011;32527;51.986;5.842;2023-03-01T10:41:06;9.02;;;5.60;;
46765;SDS011;32527;51.986;5.842;2023-03-01T10:43:41;11.55;;;5.60;;
46765;SDS011;32527;51.986;5.842;2023-03-01T10:46:21;10.90;;;5.30;;
46765;SDS011;32527;51.986;5.842;2023-03-01T10:51:42;14.82;;;5.70;;
46765;SDS011;32527;51.986;5.842;2023-03-01T10:54:20;9.52;;;5.50;;
46765;SDS011;32527;51.986;5.842;2023-03-01T10:56:51;8.65;;;5.75;;
46765;SDS011;32527;51.986;5.842;2023-03-01T11:04:59;8.65;;;5.18;;
46765;SDS011;32527;51.986;5.842;2023-03-01T11:07:48;7.72;;;5.05;;
46765;SDS011;32527;51.986;5.842;2023-03-01T11:10:19;9.15;;;5.35;;
46765;SDS011;32527;51.986;5.842;2023-03-01T11:12:47;9.15;;;5.13;;
46765;SDS011;32527;51.986;5.842;2023-03-01T11:15:20;8.93;;;4.50;;
46765;SDS011;32527;51.986;5.842;2023-03-01T11:17:53;7.65;;;4.53;;
46765;SDS011;32527;51.986;5.842;2023-03-01T11:22:58;7.93;;;4.45;;
46765;SDS011;32527;51.986;5.842;2023-03-01T11:25:30;7.25;;;4.38;;
46765;SDS011;32527;51.986;5.842;2023-03-01T11:28:01;10.57;;;4.17;;
46765;SDS011;32527;51.986;5.842;2023-03-01T11:30:29;8.13;;;4.40;;
46765;SDS011;32527;51.986;5.842;2023-03-01T11:35:41;9.30;;;4.20;;
46765;SDS011;32527;51.986;5.842;2023-03-01T11:38:20;6.82;;;4.00;;
46765;SDS011;32527;51.986;5.842;2023-03-01T11:40:54;9.23;;;4.18;;
46765;SDS011;32527;51.986;5.842;2023-03-01T12:06:00;6.93;;;4.15;;
46765;SDS011;32527;51.986;5.842;2023-03-01T12:21:28;7.43;;;4.88;;
46765;SDS011;32527;51.986;5.842;2023-03-01T12:27:18;7.30;;;4.43;;
46765;SDS011;32527;51.986;5.842;2023-03-01T12:40:46;7.30;;;4.55;;
46765;SDS011;32527;51.986;5.842;2023-03-01T12:46:19;8.60;;;4.65;;
46765;SDS011;32527;51.986;5.842;2023-03-01T12:49:08;10.50;;;5.43;;
46765;SDS011;32527;51.986;5.842;2023-03-01T12:51:42;8.60;;;5.40;;
46765;SDS011;32527;51.986;5.842;2023-03-01T12:54:19;8.75;;;4.97;;
46765;SDS011;32527;51.986;5.842;2023-03-01T12:56:50;12.35;;;5.60;;
46765;SDS011;32527;51.986;5.842;2023-03-01T13:07:38;10.68;;;4.80;;
46765;SDS011;32527;51.986;5.842;2023-03-01T13:10:26;8.10;;;4.75;;
46765;SDS011;32527;51.986;5.842;2023-03-01T13:15:46;8.38;;;4.68;;
46765;SDS011;32527;51.986;5.842;2023-03-01T13:20:46;9.90;;;4.63;;
46765;SDS011;32527;51.986;5.842;2023-03-01T13:26:01;9.32;;;5.03;;
46765;SDS011;32527;51.986;5.842;2023-03-01T13:33:46;8.68;;;4.72;;
46765;SDS011;32527;51.986;5.842;2023-03-01T13:39:00;10.23;;;3.95;;
46765;SDS011;32527;51.986;5.842;2023-03-01T13:44:18;7.80;;;4.18;;
46765;SDS011;32527;51.986;5.842;2023-03-01T13:46:49;13.20;;;5.10;;
46765;SDS011;32527;51.986;5.842;2023-03-01T13:49:18;10.50;;;4.90;;
46765;SDS011;32527;51.986;5.842;2023-03-01T13:51:47;8.07;;;4.00;;
46765;SDS011;32527;51.986;5.842;2023-03-01T13:54:15;8.75;;;5.13;;
46765;SDS011;32527;51.986;5.842;2023-03-01T13:56:45;9.20;;;4.95;;
46765;SDS011;32527;51.986;5.842;2023-03-01T13:59:15;7.75;;;4.28;;
46765;SDS011;32527;51.986;5.842;2023-03-01T14:01:43;8.98;;;4.80;;
46765;SDS011;32527;51.986;5.842;2023-03-01T14:06:48;9.55;;;4.63;;
46765;SDS011;32527;51.986;5.842;2023-03-01T14:09:21;8.95;;;4.95;;
46765;SDS011;32527;51.986;5.842;2023-03-01T14:17:16;9.05;;;4.88;;
46765;SDS011;32527;51.986;5.842;2023-03-01T14:19:47;8.18;;;4.65;;
46765;SDS011;32527;51.986;5.842;2023-03-01T14:22:26;7.55;;;4.95;;
46765;SDS011;32527;51.986;5.842;2023-03-01T14:27:59;8.65;;;4.50;;
46765;SDS011;32527;51.986;5.842;2023-03-01T14:30:40;9.45;;;4.43;;
46765;SDS011;32527;51.986;5.842;2023-03-01T14:39:15;8.32;;;5.22;;
46765;SDS011;32527;51.986;5.842;2023-03-01T14:41:31;8.70;;;4.60;;
46765;SDS011;32527;51.986;5.842;2023-03-01T14:44:19;11.25;;;5.28;;
46765;SDS011;32527;51.986;5.842;2023-03-01T14:46:51;9.43;;;4.82;;
46765;SDS011;32527;51.986;5.842;2023-03-01T14:49:20;8.43;;;4.75;;
46765;SDS011;32527;51.986;5.842;2023-03-01T14:52:04;10.90;;;4.43;;
46765;SDS011;32527;51.986;5.842;2023-03-01T14:57:12;9.95;;;4.53;;
46765;SDS011;32527;51.986;5.842;2023-03-01T14:59:40;6.55;;;4.25;;
46765;SDS011;32527;51.986;5.842;2023-03-01T15:02:14;8.13;;;5.00;;
46765;SDS011;32527;51.986;5.842;2023-03-01T15:04:48;6.90;;;4.30;;
46765;SDS011;32527;51.986;5.842;2023-03-01T15:07:17;8.45;;;4.38;;
46765;SDS011;32527;51.986;5.842;2023-03-01T15:09:44;8.98;;;4.75;;
46765;SDS011;32527;51.986;5.842;2023-03-01T15:15:08;8.90;;;4.68;;
46765;SDS011;32527;51.986;5.842;2023-03-01T15:17:54;9.23;;;5.00;;
46765;SDS011;32527;51.986;5.842;2023-03-01T15:20:22;9.50;;;4.93;;
46765;SDS011;32527;51.986;5.842;2023-03-01T15:22:51;8.35;;;4.63;;
46765;SDS011;32527;51.986;5.842;2023-03-01T15:25:18;7.05;;;4.22;;
46765;SDS011;32527;51.986;5.842;2023-03-01T15:27:47;7.20;;;4.50;;
46765;SDS011;32527;51.986;5.842;2023-03-01T15:35:45;5.97;;;3.78;;
46765;SDS011;32527;51.986;5.842;2023-03-01T15:40:57;8.20;;;4.15;;
46765;SDS011;32527;51.986;5.842;2023-03-01T15:43:37;8.05;;;4.30;;
46765;SDS011;32527;51.986;5.842;2023-03-01T15:46:21;7.80;;;3.95;;
46765;SDS011;32527;51.986;5.842;2023-03-01T15:48:52;8.02;;;4.07;;
46765;SDS011;32527;51.986;5.842;2023-03-01T15:51:28;7.88;;;3.63;;
46765;SDS011;32527;51.986;5.842;2023-03-01T15:53:58;5.70;;;3.40;;
46765;SDS011;32527;51.986;5.842;2023-03-01T15:56:25;6.60;;;3.58;;
46765;SDS011;32527;51.986;5.842;2023-03-01T15:58:50;7.88;;;4.03;;
46765;SDS011;32527;51.986;5.842;2023-03-01T16:01:17;6.97;;;3.70;;
46765;SDS011;32527;51.986;5.842;2023-03-01T16:03:43;8.60;;;4.45;;
46765;SDS011;32527;51.986;5.842;2023-03-01T16:06:09;5.72;;;3.70;;
46765;SDS011;32527;51.986;5.842;2023-03-01T16:08:36;6.68;;;4.00;;
46765;SDS011;32527;51.986;5.842;2023-03-01T16:11:03;7.28;;;3.65;;
46765;SDS011;32527;51.986;5.842;2023-03-01T16:13:31;6.38;;;3.25;;
46765;SDS011;32527;51.986;5.842;2023-03-01T16:15:57;7.50;;;3.70;;
46765;SDS011;32527;51.986;5.842;2023-03-01T16:18:24;5.57;;;3.83;;
46765;SDS011;32527;51.986;5.842;2023-03-01T16:20:50;6.32;;;4.10;;
46765;SDS011;32527;51.986;5.842;2023-03-01T16:23:16;6.53;;;3.83;;
46765;SDS011;32527;51.986;5.842;2023-03-01T16:25:41;8.95;;;4.70;;
46765;SDS011;32527;51.986;5.842;2023-03-01T16:28:07;7.68;;;3.55;;
46765;SDS011;32527;51.986;5.842;2023-03-01T16:30:35;5.75;;;4.07;;
46765;SDS011;32527;51.986;5.842;2023-03-01T16:33:01;8.93;;;4.80;;
46765;SDS011;32527;51.986;5.842;2023-03-01T16:35:27;10.02;;;4.32;;
46765;SDS011;32527;51.986;5.842;2023-03-01T16:37:54;6.70;;;3.65;;
46765;SDS011;32527;51.986;5.842;2023-03-01T16:40:20;6.63;;;3.70;;
46765;SDS011;32527;51.986;5.842;2023-03-01T16:45:20;6.43;;;3.55;;
46765;SDS011;32527;51.986;5.842;2023-03-01T16:47:46;5.80;;;3.45;;
46765;SDS011;32527;51.986;5.842;2023-03-01T16:50:11;6.43;;;3.75;;
46765;SDS011;32527;51.986;5.842;2023-03-01T16:52:38;5.72;;;3.47;;
46765;SDS011;32527;51.986;5.842;2023-03-01T16:55:04;7.90;;;3.75;;
46765;SDS011;32527;51.986;5.842;2023-03-01T16:57:35;8.15;;;3.97;;
46765;SDS011;32527;51.986;5.842;2023-03-01T17:00:03;7.38;;;3.65;;
46765;SDS011;32527;51.986;5.842;2023-03-01T17:02:32;6.65;;;4.07;;
46765;SDS011;32527;51.986;5.842;2023-03-01T17:04:58;7.40;;;3.70;;
46765;SDS011;32527;51.986;5.842;2023-03-01T17:07:24;8.13;;;3.83;;
46765;SDS011;32527;51.986;5.842;2023-03-01T17:09:50;10.10;;;4.30;;
46765;SDS011;32527;51.986;5.842;2023-03-01T17:12:16;6.43;;;3.80;;
46765;SDS011;32527;51.986;5.842;2023-03-01T17:14:42;8.10;;;3.83;;
46765;SDS011;32527;51.986;5.842;2023-03-01T17:17:08;6.82;;;3.95;;
46765;SDS011;32527;51.986;5.842;2023-03-01T17:19:35;7.13;;;3.63;;
46765;SDS011;32527;51.986;5.842;2023-03-01T17:22:07;9.20;;;4.07;;
46765;SDS011;32527;51.986;5.842;2023-03-01T17:24:33;7.72;;;4.18;;
46765;SDS011;32527;51.986;5.842;2023-03-01T17:27:00;9.48;;;4.25;;
46765;SDS011;32527;51.986;5.842;2023-03-01T17:29:26;8.80;;;4.38;;
46765;SDS011;32527;51.986;5.842;2023-03-01T17:31:52;6.45;;;3.75;;
46765;SDS011;32527;51.986;5.842;2023-03-01T17:34:20;9.25;;;4.20;;
46765;SDS011;32527;51.986;5.842;2023-03-01T17:36:46;7.15;;;4.35;;
46765;SDS011;32527;51.986;5.842;2023-03-01T17:39:14;7.07;;;4.40;;
46765;SDS011;32527;51.986;5.842;2023-03-01T17:41:41;7.15;;;4.50;;
46765;SDS011;32527;51.986;5.842;2023-03-01T17:44:07;9.40;;;4.05;;
46765;SDS011;32527;51.986;5.842;2023-03-01T17:46:33;7.32;;;4.40;;
46765;SDS011;32527;51.986;5.842;2023-03-01T17:48:59;8.23;;;4.15;;
46765;SDS011;32527;51.986;5.842;2023-03-01T17:51:25;8.25;;;4.50;;
46765;SDS011;32527;51.986;5.842;2023-03-01T17:53:51;8.35;;;4.38;;
46765;SDS011;32527;51.986;5.842;2023-03-01T17:56:17;11.43;;;4.38;;
46765;SDS011;32527;51.986;5.842;2023-03-01T17:58:43;7.50;;;4.15;;
46765;SDS011;32527;51.986;5.842;2023-03-01T18:01:17;7.53;;;4.57;;
46765;SDS011;32527;51.986;5.842;2023-03-01T18:03:45;9.02;;;4.68;;